sensor_id;sensor_type;location;lat;lon;timestamp;pressure;altitude;pressure_sealevel;temperature;humidity
29879;BME280;16752;53.364;-1.488;2023-06-14T00:00:36;100737.66;;;24.31;27.61
29879;BME280;16752;53.364;-1.488;2023-06-14T00:03:25;100729.00;;;24.21;27.68
29879;BME280;16752;53.364;-1.488;2023-06-14T00:06:09;100764.63;;;24.30;28.31
29879;BME280;16752;53.364;-1.488;2023-06-14T00:08:54;100776.47;;;24.27;28.77
29879;BME280;16752;53.364;-1.488;2023-06-14T00:11:38;100772.56;;;24.15;28.77
29879;BME280;16752;53.364;-1.488;2023-06-14T00:14:22;100764.19;;;23.95;29.00
29879;BME280;16752;53.364;-1.488;2023-06-14T00:17:06;100805.16;;;24.19;29.74
29879;BME280;16752;53.364;-1.488;2023-06-14T00:19:51;100744.50;;;23.65;29.67
29879;BME280;16752;53.364;-1.488;2023-06-14T00:22:36;100840.97;;;24.18;29.69
29879;BME280;16752;53.364;-1.488;2023-06-14T00:25:24;100843.72;;;24.10;29.80
29879;BME280;16752;53.364;-1.488;2023-06-14T00:28:11;100820.59;;;23.86;30.32
29879;BME280;16752;53.364;-1.488;2023-06-14T00:30:55;100840.94;;;23.95;30.64
29879;BME280;16752;53.364;-1.488;2023-06-14T00:33:39;100798.13;;;23.64;30.42
29879;BME280;16752;53.364;-1.488;2023-06-14T00:36:23;100736.66;;;23.16;30.47
29879;BME280;16752;53.364;-1.488;2023-06-14T00:39:07;100700.53;;;22.90;30.93
29879;BME280;16752;53.364;-1.488;2023-06-14T00:41:53;100726.66;;;23.10;31.19
29879;BME280;16752;53.364;-1.488;2023-06-14T00:44:37;100778.66;;;23.39;31.75
29879;BME280;16752;53.364;-1.488;2023-06-14T00:47:22;100756.66;;;23.29;31.49
29879;BME280;16752;53.364;-1.488;2023-06-14T00:50:09;100747.69;;;23.22;31.07
29879;BME280;16752;53.364;-1.488;2023-06-14T00:52:53;100784.34;;;23.44;30.94
29879;BME280;16752;53.364;-1.488;2023-06-14T00:55:37;100726.38;;;22.97;32.08
29879;BME280;16752;53.364;-1.488;2023-06-14T00:58:22;100829.41;;;23.55;32.23
29879;BME280;16752;53.364;-1.488;2023-06-14T01:01:06;100804.06;;;23.43;31.71
29879;BME280;16752;53.364;-1.488;2023-06-14T01:03:50;100797.03;;;23.42;31.18
29879;BME280;16752;53.364;-1.488;2023-06-14T01:09:48;100719.53;;;22.95;32.03
29879;BME280;16752;53.364;-1.488;2023-06-14T01:15:26;100736.13;;;22.82;32.79
29879;BME280;16752;53.364;-1.488;2023-06-14T01:18:11;100775.09;;;23.15;32.71
29879;BME280;16752;53.364;-1.488;2023-06-14T01:21:01;100833.50;;;23.35;34.29
29879;BME280;16752;53.364;-1.488;2023-06-14T01:23:50;100827.78;;;23.46;33.64
29879;BME280;16752;53.364;-1.488;2023-06-14T01:26:38;100795.09;;;23.20;33.85
29879;BME280;16752;53.364;-1.488;2023-06-14T01:29:23;100779.41;;;23.16;33.70
29879;BME280;16752;53.364;-1.488;2023-06-14T01:32:09;100753.13;;;22.89;34.37
29879;BME280;16752;53.364;-1.488;2023-06-14T01:34:54;100831.13;;;23.40;33.65
29879;BME280;16752;53.364;-1.488;2023-06-14T01:37:39;100744.28;;;22.80;33.93
29879;BME280;16752;53.364;-1.488;2023-06-14T01:40:24;100834.41;;;23.11;34.97
29879;BME280;16752;53.364;-1.488;2023-06-14T01:43:10;100821.03;;;23.11;35.11
29879;BME280;16752;53.364;-1.488;2023-06-14T01:45:56;100758.13;;;22.76;35.00
29879;BME280;16752;53.364;-1.488;2023-06-14T01:48:40;100747.78;;;22.73;34.66
29879;BME280;16752;53.364;-1.488;2023-06-14T01:51:25;100650.44;;;22.12;35.21
29879;BME280;16752;53.364;-1.488;2023-06-14T01:54:09;100764.81;;;22.80;35.46
29879;BME280;16752;53.364;-1.488;2023-06-14T01:56:53;100745.63;;;22.68;35.01
29879;BME280;16752;53.364;-1.488;2023-06-14T01:59:38;100776.34;;;22.80;35.24
29879;BME280;16752;53.364;-1.488;2023-06-14T02:02:22;100760.81;;;22.68;34.92
29879;BME280;16752;53.364;-1.488;2023-06-14T02:05:06;100828.59;;;22.99;34.82
29879;BME280;16752;53.364;-1.488;2023-06-14T02:07:51;100746.13;;;22.55;34.94
29879;BME280;16752;53.364;-1.488;2023-06-14T02:10:37;100759.00;;;22.52;35.80
29879;BME280;16752;53.364;-1.488;2023-06-14T02:13:21;100778.69;;;22.59;35.66
29879;BME280;16752;53.364;-1.488;2023-06-14T02:16:05;100813.56;;;22.74;35.42
29879;BME280;16752;53.364;-1.488;2023-06-14T02:18:50;100810.56;;;22.61;35.84
29879;BME280;16752;53.364;-1.488;2023-06-14T02:21:35;100809.41;;;22.63;36.04
29879;BME280;16752;53.364;-1.488;2023-06-14T02:24:19;100775.84;;;22.12;36.92
29879;BME280;16752;53.364;-1.488;2023-06-14T02:27:04;100727.97;;;22.02;36.32
29879;BME280;16752;53.364;-1.488;2023-06-14T02:29:48;100814.59;;;22.56;36.40
29879;BME280;16752;53.364;-1.488;2023-06-14T02:32:32;100741.16;;;22.12;36.45
29879;BME280;16752;53.364;-1.488;2023-06-14T02:35:19;100707.09;;;21.81;37.00
29879;BME280;16752;53.364;-1.488;2023-06-14T02:38:04;100814.91;;;22.53;36.32
29879;BME280;16752;53.364;-1.488;2023-06-14T02:40:48;100729.28;;;21.74;36.98
29879;BME280;16752;53.364;-1.488;2023-06-14T02:43:32;100807.75;;;22.38;36.35
29879;BME280;16752;53.364;-1.488;2023-06-14T02:46:16;100804.56;;;22.42;36.24
29879;BME280;16752;53.364;-1.488;2023-06-14T02:49:00;100788.38;;;22.19;36.31
29879;BME280;16752;53.364;-1.488;2023-06-14T02:51:44;100755.31;;;21.96;36.26
29879;BME280;16752;53.364;-1.488;2023-06-14T02:54:28;100783.47;;;21.99;36.75
29879;BME280;16752;53.364;-1.488;2023-06-14T02:57:12;100805.06;;;22.13;36.51
29879;BME280;16752;53.364;-1.488;2023-06-14T02:59:56;100783.78;;;21.87;37.00
29879;BME280;16752;53.364;-1.488;2023-06-14T03:02:40;100746.44;;;21.79;36.37
29879;BME280;16752;53.364;-1.488;2023-06-14T03:05:27;100709.41;;;21.60;36.87
29879;BME280;16752;53.364;-1.488;2023-06-14T03:08:12;100805.56;;;22.25;36.50
29879;BME280;16752;53.364;-1.488;2023-06-14T03:11:00;100739.78;;;21.83;36.21
29879;BME280;16752;53.364;-1.488;2023-06-14T03:13:46;100812.22;;;22.21;36.50
29879;BME280;16752;53.364;-1.488;2023-06-14T03:16:31;100758.44;;;21.75;36.42
29879;BME280;16752;53.364;-1.488;2023-06-14T03:19:15;100781.84;;;22.06;36.05
29879;BME280;16752;53.364;-1.488;2023-06-14T03:21:59;100751.28;;;21.76;36.43
29879;BME280;16752;53.364;-1.488;2023-06-14T03:24:43;100792.72;;;22.12;35.71
29879;BME280;16752;53.364;-1.488;2023-06-14T03:27:28;100826.56;;;22.20;36.35
29879;BME280;16752;53.364;-1.488;2023-06-14T03:30:13;100731.28;;;21.88;35.77
29879;BME280;16752;53.364;-1.488;2023-06-14T03:32:58;100764.44;;;21.77;36.30
29879;BME280;16752;53.364;-1.488;2023-06-14T03:35:44;100759.13;;;22.02;36.01
29879;BME280;16752;53.364;-1.488;2023-06-14T03:38:28;100762.38;;;22.13;35.78
29879;BME280;16752;53.364;-1.488;2023-06-14T03:41:12;100759.81;;;21.95;36.29
29879;BME280;16752;53.364;-1.488;2023-06-14T03:43:56;100708.44;;;21.77;35.82
29879;BME280;16752;53.364;-1.488;2023-06-14T03:46:40;100761.28;;;21.90;36.39
29879;BME280;16752;53.364;-1.488;2023-06-14T03:49:24;100753.97;;;21.92;35.79
29879;BME280;16752;53.364;-1.488;2023-06-14T03:52:09;100749.09;;;21.87;36.10
29879;BME280;16752;53.364;-1.488;2023-06-14T03:54:53;100743.44;;;21.74;36.68
29879;BME280;16752;53.364;-1.488;2023-06-14T03:57:37;100836.75;;;22.33;36.33
29879;BME280;16752;53.364;-1.488;2023-06-14T04:00:21;100797.88;;;22.22;36.22
29879;BME280;16752;53.364;-1.488;2023-06-14T04:03:05;100716.09;;;21.72;36.25
29879;BME280;16752;53.364;-1.488;2023-06-14T04:05:50;100787.22;;;22.22;35.96
29879;BME280;16752;53.364;-1.488;2023-06-14T04:08:33;100765.50;;;22.09;36.23
29879;BME280;16752;53.364;-1.488;2023-06-14T04:11:18;100728.94;;;21.77;36.91
29879;BME280;16752;53.364;-1.488;2023-06-14T04:14:03;100658.38;;;21.39;36.36
29879;BME280;16752;53.364;-1.488;2023-06-14T04:16:48;100807.91;;;22.36;36.07
29879;BME280;16752;53.364;-1.488;2023-06-14T04:19:32;100799.56;;;22.23;36.28
29879;BME280;16752;53.364;-1.488;2023-06-14T04:22:16;100730.44;;;21.87;35.69
29879;BME280;16752;53.364;-1.488;2023-06-14T04:25:00;100776.38;;;22.23;36.22
29879;BME280;16752;53.364;-1.488;2023-06-14T04:27:44;100735.44;;;21.74;36.15
29879;BME280;16752;53.364;-1.488;2023-06-14T04:30:28;100793.88;;;22.42;35.49
29879;BME280;16752;53.364;-1.488;2023-06-14T04:33:15;100775.00;;;22.11;36.27
29879;BME280;16752;53.364;-1.488;2023-06-14T04:36:01;100714.59;;;21.78;35.96
29879;BME280;16752;53.364;-1.488;2023-06-14T04:38:45;100711.25;;;21.84;35.37
29879;BME280;16752;53.364;-1.488;2023-06-14T04:41:30;100791.72;;;22.38;35.73
29879;BME280;16752;53.364;-1.488;2023-06-14T04:44:15;100733.13;;;22.04;36.13
29879;BME280;16752;53.364;-1.488;2023-06-14T04:47:00;100723.31;;;22.04;35.33
29879;BME280;16752;53.364;-1.488;2023-06-14T04:49:44;100819.75;;;22.58;35.76
29879;BME280;16752;53.364;-1.488;2023-06-14T04:52:28;100761.84;;;22.26;35.57
29879;BME280;16752;53.364;-1.488;2023-06-14T04:55:14;100744.19;;;22.17;35.35
29879;BME280;16752;53.364;-1.488;2023-06-14T04:57:58;100807.91;;;22.61;35.57
29879;BME280;16752;53.364;-1.488;2023-06-14T05:00:42;100762.84;;;22.33;35.45
29879;BME280;16752;53.364;-1.488;2023-06-14T05:03:27;100819.75;;;22.50;36.36
29879;BME280;16752;53.364;-1.488;2023-06-14T05:06:11;100718.44;;;21.83;35.78
29879;BME280;16752;53.364;-1.488;2023-06-14T05:08:55;100782.72;;;22.39;35.41
29879;BME280;16752;53.364;-1.488;2023-06-14T05:11:39;100723.66;;;22.09;35.34
29879;BME280;16752;53.364;-1.488;2023-06-14T05:14:24;100824.56;;;22.71;36.24
29879;BME280;16752;53.364;-1.488;2023-06-14T05:17:09;100815.22;;;22.26;36.51
29879;BME280;16752;53.364;-1.488;2023-06-14T05:19:54;100736.31;;;22.07;35.55
29879;BME280;16752;53.364;-1.488;2023-06-14T05:22:39;100819.25;;;22.79;35.52
29879;BME280;16752;53.364;-1.488;2023-06-14T05:25:24;100826.59;;;22.61;35.68
29879;BME280;16752;53.364;-1.488;2023-06-14T05:28:08;100783.53;;;22.47;35.73
29879;BME280;16752;53.364;-1.488;2023-06-14T05:30:52;100824.22;;;22.98;35.36
29879;BME280;16752;53.364;-1.488;2023-06-14T05:33:36;100729.84;;;22.18;36.10
29879;BME280;16752;53.364;-1.488;2023-06-14T05:36:20;100797.53;;;22.74;35.66
29879;BME280;16752;53.364;-1.488;2023-06-14T05:39:05;100779.84;;;22.73;35.03
29879;BME280;16752;53.364;-1.488;2023-06-14T05:41:50;100785.00;;;22.74;35.87
29879;BME280;16752;53.364;-1.488;2023-06-14T05:44:34;100796.03;;;22.71;35.79
29879;BME280;16752;53.364;-1.488;2023-06-14T05:47:18;100824.22;;;22.74;35.71
29879;BME280;16752;53.364;-1.488;2023-06-14T05:50:02;100766.97;;;22.76;34.99
29879;BME280;16752;53.364;-1.488;2023-06-14T05:52:46;100767.47;;;22.72;35.28
29879;BME280;16752;53.364;-1.488;2023-06-14T05:55:30;100780.19;;;22.86;35.80
29879;BME280;16752;53.364;-1.488;2023-06-14T05:58:14;100747.84;;;22.24;36.43
29879;BME280;16752;53.364;-1.488;2023-06-14T06:00:58;100786.50;;;23.01;36.33
29879;BME280;16752;53.364;-1.488;2023-06-14T06:03:42;100822.78;;;23.43;35.37
29879;BME280;16752;53.364;-1.488;2023-06-14T06:06:29;100823.06;;;23.09;36.35
29879;BME280;16752;53.364;-1.488;2023-06-14T06:09:13;100799.56;;;23.35;34.70
29879;BME280;16752;53.364;-1.488;2023-06-14T06:11:58;100775.59;;;23.11;35.04
29879;BME280;16752;53.364;-1.488;2023-06-14T06:14:42;100814.88;;;23.10;36.14
29879;BME280;16752;53.364;-1.488;2023-06-14T06:17:26;100802.72;;;23.47;35.50
29879;BME280;16752;53.364;-1.488;2023-06-14T06:20:11;100716.50;;;23.06;35.34
29879;BME280;16752;53.364;-1.488;2023-06-14T06:22:58;100751.84;;;22.36;37.00
29879;BME280;16752;53.364;-1.488;2023-06-14T06:25:43;100668.41;;;22.98;34.98
29879;BME280;16752;53.364;-1.488;2023-06-14T06:28:27;100726.81;;;23.48;34.75
29879;BME280;16752;53.364;-1.488;2023-06-14T06:31:11;100805.53;;;24.16;34.27
29879;BME280;16752;53.364;-1.488;2023-06-14T06:34:02;100825.09;;;24.16;34.91
29879;BME280;16752;53.364;-1.488;2023-06-14T06:36:46;100736.94;;;23.92;33.83
29879;BME280;16752;53.364;-1.488;2023-06-14T06:39:30;100755.19;;;23.26;35.61
29879;BME280;16752;53.364;-1.488;2023-06-14T06:42:14;100848.63;;;24.29;34.43
29879;BME280;16752;53.364;-1.488;2023-06-14T06:44:59;100837.41;;;24.33;34.66
29879;BME280;16752;53.364;-1.488;2023-06-14T06:47:43;100804.31;;;24.64;33.85
29879;BME280;16752;53.364;-1.488;2023-06-14T06:50:27;100810.81;;;24.84;33.92
29879;BME280;16752;53.364;-1.488;2023-06-14T06:53:11;100733.25;;;23.70;34.56
29879;BME280;16752;53.364;-1.488;2023-06-14T06:55:55;100844.72;;;24.40;34.63
29879;BME280;16752;53.364;-1.488;2023-06-14T06:58:40;100850.66;;;24.87;33.52
29879;BME280;16752;53.364;-1.488;2023-06-14T07:01:46;100804.53;;;24.77;33.03
29879;BME280;16752;53.364;-1.488;2023-06-14T07:04:30;100724.44;;;24.82;32.62
29879;BME280;16752;53.364;-1.488;2023-06-14T07:07:14;100767.78;;;25.15;33.06
29879;BME280;16752;53.364;-1.488;2023-06-14T07:09:59;100851.75;;;25.45;33.28
29879;BME280;16752;53.364;-1.488;2023-06-14T07:12:44;100753.13;;;24.59;33.67
29879;BME280;16752;53.364;-1.488;2023-06-14T07:15:28;100808.75;;;25.68;32.20
29879;BME280;16752;53.364;-1.488;2023-06-14T07:18:20;100698.19;;;25.07;31.92
29879;BME280;16752;53.364;-1.488;2023-06-14T07:21:07;100811.66;;;25.88;31.76
29879;BME280;16752;53.364;-1.488;2023-06-14T07:23:53;100861.19;;;26.43;31.49
29879;BME280;16752;53.364;-1.488;2023-06-14T07:29:35;100786.22;;;26.05;31.02
29879;BME280;16752;53.364;-1.488;2023-06-14T07:32:20;100776.50;;;26.26;31.85
29879;BME280;16752;53.364;-1.488;2023-06-14T07:35:04;100857.50;;;26.93;30.78
29879;BME280;16752;53.364;-1.488;2023-06-14T07:37:51;100862.97;;;27.00;31.53
29879;BME280;16752;53.364;-1.488;2023-06-14T07:40:35;100777.75;;;26.72;30.28
29879;BME280;16752;53.364;-1.488;2023-06-14T07:43:25;100750.91;;;26.51;31.54
29879;BME280;16752;53.364;-1.488;2023-06-14T07:46:09;100762.50;;;26.09;32.48
29879;BME280;16752;53.364;-1.488;2023-06-14T07:49:09;100871.38;;;27.18;32.17
29879;BME280;16752;53.364;-1.488;2023-06-14T07:51:53;100865.75;;;27.54;30.15
29879;BME280;16752;53.364;-1.488;2023-06-14T07:54:37;100836.59;;;26.67;30.58
29879;BME280;16752;53.364;-1.488;2023-06-14T07:57:21;100723.66;;;27.23;29.52
29879;BME280;16752;53.364;-1.488;2023-06-14T08:00:05;100843.78;;;27.85;29.90
29879;BME280;16752;53.364;-1.488;2023-06-14T08:02:50;100798.88;;;27.51;29.98
29879;BME280;16752;53.364;-1.488;2023-06-14T08:05:35;100775.34;;;27.12;30.19
29879;BME280;16752;53.364;-1.488;2023-06-14T08:08:20;100805.09;;;28.13;29.16
29879;BME280;16752;53.364;-1.488;2023-06-14T08:11:04;100777.09;;;27.87;29.50
29879;BME280;16752;53.364;-1.488;2023-06-14T08:13:58;100810.06;;;28.03;29.49
29879;BME280;16752;53.364;-1.488;2023-06-14T08:17:04;100847.47;;;28.58;28.60
29879;BME280;16752;53.364;-1.488;2023-06-14T08:19:50;100821.31;;;28.39;29.17
29879;BME280;16752;53.364;-1.488;2023-06-14T08:22:58;100809.72;;;28.32;30.96
29879;BME280;16752;53.364;-1.488;2023-06-14T08:25:48;100851.84;;;28.46;30.07
29879;BME280;16752;53.364;-1.488;2023-06-14T08:28:58;100780.69;;;28.60;30.02
29879;BME280;16752;53.364;-1.488;2023-06-14T08:32:24;100695.50;;;28.46;28.61
29879;BME280;16752;53.364;-1.488;2023-06-14T08:35:11;100770.13;;;28.26;29.87
29879;BME280;16752;53.364;-1.488;2023-06-14T08:38:12;100771.09;;;29.04;28.69
29879;BME280;16752;53.364;-1.488;2023-06-14T08:40:57;100855.47;;;29.58;29.20
29879;BME280;16752;53.364;-1.488;2023-06-14T08:43:47;100735.91;;;28.86;28.32
29879;BME280;16752;53.364;-1.488;2023-06-14T08:46:32;100785.97;;;29.27;28.56
29879;BME280;16752;53.364;-1.488;2023-06-14T08:49:34;100855.06;;;29.54;28.89
29879;BME280;16752;53.364;-1.488;2023-06-14T08:52:48;100851.34;;;30.00;28.40
29879;BME280;16752;53.364;-1.488;2023-06-14T08:55:47;100822.34;;;29.04;29.79
29879;BME280;16752;53.364;-1.488;2023-06-14T08:58:32;100844.28;;;29.92;27.81
29879;BME280;16752;53.364;-1.488;2023-06-14T09:01:21;100769.00;;;30.09;26.91
29879;BME280;16752;53.364;-1.488;2023-06-14T09:04:07;100731.53;;;29.43;28.19
29879;BME280;16752;53.364;-1.488;2023-06-14T09:06:52;100846.66;;;30.52;27.73
29879;BME280;16752;53.364;-1.488;2023-06-14T09:13:08;100817.28;;;30.55;28.23
29879;BME280;16752;53.364;-1.488;2023-06-14T09:16:11;100722.34;;;30.20;26.20
29879;BME280;16752;53.364;-1.488;2023-06-14T09:21:47;100816.06;;;30.51;26.46
29879;BME280;16752;53.364;-1.488;2023-06-14T09:24:45;100738.72;;;30.50;26.47
29879;BME280;16752;53.364;-1.488;2023-06-14T09:27:51;100844.84;;;30.95;27.28
29879;BME280;16752;53.364;-1.488;2023-06-14T09:33:31;100841.97;;;30.90;27.55
29879;BME280;16752;53.364;-1.488;2023-06-14T09:36:25;100793.97;;;31.59;25.88
29879;BME280;16752;53.364;-1.488;2023-06-14T09:39:18;100787.47;;;31.30;26.16
29879;BME280;16752;53.364;-1.488;2023-06-14T09:44:56;100773.41;;;31.70;24.83
29879;BME280;16752;53.364;-1.488;2023-06-14T09:50:21;100840.53;;;31.68;25.31
29879;BME280;16752;53.364;-1.488;2023-06-14T09:53:15;100844.94;;;32.29;23.88
29879;BME280;16752;53.364;-1.488;2023-06-14T09:56:01;100837.66;;;31.62;23.85
29879;BME280;16752;53.364;-1.488;2023-06-14T09:58:45;100714.31;;;30.57;24.53
29879;BME280;16752;53.364;-1.488;2023-06-14T10:01:31;100770.66;;;31.40;24.42
29879;BME280;16752;53.364;-1.488;2023-06-14T10:04:20;100849.13;;;32.66;22.99
29879;BME280;16752;53.364;-1.488;2023-06-14T10:07:07;100757.31;;;31.56;23.66
29879;BME280;16752;53.364;-1.488;2023-06-14T10:10:18;100845.59;;;32.66;23.45
29879;BME280;16752;53.364;-1.488;2023-06-14T10:16:34;100849.63;;;33.22;21.81
29879;BME280;16752;53.364;-1.488;2023-06-14T10:22:40;100785.44;;;32.34;21.75
29879;BME280;16752;53.364;-1.488;2023-06-14T10:25:33;100708.06;;;31.18;21.74
29879;BME280;16752;53.364;-1.488;2023-06-14T10:28:21;100768.56;;;31.42;22.07
29879;BME280;16752;53.364;-1.488;2023-06-14T10:31:47;100771.50;;;32.42;21.41
29879;BME280;16752;53.364;-1.488;2023-06-14T10:35:02;100832.72;;;32.38;21.28
29879;BME280;16752;53.364;-1.488;2023-06-14T10:37:51;100757.56;;;31.55;21.09
29879;BME280;16752;53.364;-1.488;2023-06-14T10:40:44;100732.25;;;31.31;21.17
29879;BME280;16752;53.364;-1.488;2023-06-14T10:43:36;100799.41;;;32.31;23.09
29879;BME280;16752;53.364;-1.488;2023-06-14T10:46:20;100784.38;;;32.58;21.41
29879;BME280;16752;53.364;-1.488;2023-06-14T10:52:15;100837.31;;;33.54;20.22
29879;BME280;16752;53.364;-1.488;2023-06-14T10:55:18;100846.09;;;33.33;20.90
29879;BME280;16752;53.364;-1.488;2023-06-14T10:58:11;100741.19;;;33.03;19.57
29879;BME280;16752;53.364;-1.488;2023-06-14T11:00:55;100814.66;;;33.49;19.19
29879;BME280;16752;53.364;-1.488;2023-06-14T11:03:51;100841.50;;;33.33;20.54
29879;BME280;16752;53.364;-1.488;2023-06-14T11:06:50;100836.22;;;33.67;18.23
29879;BME280;16752;53.364;-1.488;2023-06-14T11:13:41;100703.22;;;31.68;19.99
29879;BME280;16752;53.364;-1.488;2023-06-14T11:16:34;100706.31;;;32.37;19.32
29879;BME280;16752;53.364;-1.488;2023-06-14T11:19:31;100817.03;;;32.63;20.25
29879;BME280;16752;53.364;-1.488;2023-06-14T11:22:16;100757.72;;;31.90;19.88
29879;BME280;16752;53.364;-1.488;2023-06-14T11:25:19;100825.38;;;33.55;18.67
29879;BME280;16752;53.364;-1.488;2023-06-14T11:28:04;100783.19;;;33.81;20.19
29879;BME280;16752;53.364;-1.488;2023-06-14T11:34:24;100760.09;;;32.87;20.43
29879;BME280;16752;53.364;-1.488;2023-06-14T11:37:08;100798.44;;;33.82;20.15
29879;BME280;16752;53.364;-1.488;2023-06-14T11:39:58;100776.34;;;34.24;19.31
29879;BME280;16752;53.364;-1.488;2023-06-14T11:42:42;100727.78;;;33.82;19.05
29879;BME280;16752;53.364;-1.488;2023-06-14T11:45:27;100735.16;;;34.15;18.64
29879;BME280;16752;53.364;-1.488;2023-06-14T11:48:14;100813.66;;;32.79;19.38
29879;BME280;16752;53.364;-1.488;2023-06-14T11:51:01;100748.84;;;33.06;19.44
29879;BME280;16752;53.364;-1.488;2023-06-14T11:53:46;100766.56;;;33.78;18.71
29879;BME280;16752;53.364;-1.488;2023-06-14T11:56:31;100716.66;;;32.63;18.90
29879;BME280;16752;53.364;-1.488;2023-06-14T11:59:15;100737.56;;;33.83;19.02
29879;BME280;16752;53.364;-1.488;2023-06-14T12:01:59;100783.50;;;33.28;19.91
29879;BME280;16752;53.364;-1.488;2023-06-14T12:04:46;100795.38;;;33.79;20.08
29879;BME280;16752;53.364;-1.488;2023-06-14T12:07:57;100810.34;;;34.88;19.38
29879;BME280;16752;53.364;-1.488;2023-06-14T12:10:43;100788.50;;;34.67;18.62
29879;BME280;16752;53.364;-1.488;2023-06-14T12:13:27;100710.59;;;33.93;20.37
29879;BME280;16752;53.364;-1.488;2023-06-14T12:16:11;100720.69;;;34.65;17.88
29879;BME280;16752;53.364;-1.488;2023-06-14T12:19:20;100811.63;;;35.03;19.43
29879;BME280;16752;53.364;-1.488;2023-06-14T12:22:10;100804.88;;;35.05;18.93
29879;BME280;16752;53.364;-1.488;2023-06-14T12:24:57;100806.81;;;35.48;18.69
29879;BME280;16752;53.364;-1.488;2023-06-14T12:27:41;100813.03;;;35.44;18.05
29879;BME280;16752;53.364;-1.488;2023-06-14T12:30:26;100758.66;;;34.55;18.63
29879;BME280;16752;53.364;-1.488;2023-06-14T12:33:10;100816.28;;;34.69;19.08
29879;BME280;16752;53.364;-1.488;2023-06-14T12:36:21;100768.78;;;34.93;18.32
29879;BME280;16752;53.364;-1.488;2023-06-14T12:42:34;100759.59;;;35.21;16.87
29879;BME280;16752;53.364;-1.488;2023-06-14T12:45:18;100753.44;;;35.31;16.76
29879;BME280;16752;53.364;-1.488;2023-06-14T12:51:00;100745.72;;;35.22;17.03
29879;BME280;16752;53.364;-1.488;2023-06-14T12:57:35;100826.69;;;34.72;17.93
29879;BME280;16752;53.364;-1.488;2023-06-14T13:00:27;100719.09;;;34.86;18.04
29879;BME280;16752;53.364;-1.488;2023-06-14T13:15:13;100807.22;;;35.18;17.78
29879;BME280;16752;53.364;-1.488;2023-06-14T13:23:56;100802.44;;;35.74;17.46
29879;BME280;16752;53.364;-1.488;2023-06-14T13:26:44;100692.97;;;34.13;16.24
29879;BME280;16752;53.364;-1.488;2023-06-14T13:33:00;100814.50;;;36.32;16.45
29879;BME280;16752;53.364;-1.488;2023-06-14T13:35:45;100778.78;;;36.02;15.72
29879;BME280;16752;53.364;-1.488;2023-06-14T13:38:31;100819.16;;;36.32;15.99
29879;BME280;16752;53.364;-1.488;2023-06-14T13:41:15;100800.63;;;36.07;15.64
29879;BME280;16752;53.364;-1.488;2023-06-14T13:44:00;100781.91;;;35.89;16.02
29879;BME280;16752;53.364;-1.488;2023-06-14T13:46:45;100798.91;;;35.74;16.22
29879;BME280;16752;53.364;-1.488;2023-06-14T13:49:31;100700.31;;;35.55;14.97
29879;BME280;16752;53.364;-1.488;2023-06-14T13:52:43;100776.88;;;36.02;16.04
29879;BME280;16752;53.364;-1.488;2023-06-14T13:55:40;100824.34;;;35.79;15.66
29879;BME280;16752;53.364;-1.488;2023-06-14T13:58:23;100798.53;;;36.46;16.55
29879;BME280;16752;53.364;-1.488;2023-06-14T14:01:08;100705.25;;;35.85;16.82
29879;BME280;16752;53.364;-1.488;2023-06-14T14:03:54;100736.47;;;35.23;16.38
29879;BME280;16752;53.364;-1.488;2023-06-14T14:10:00;100714.84;;;35.93;16.44
29879;BME280;16752;53.364;-1.488;2023-06-14T14:22:07;100783.56;;;37.63;16.62
29879;BME280;16752;53.364;-1.488;2023-06-14T14:25:00;100728.06;;;36.80;15.88
29879;BME280;16752;53.364;-1.488;2023-06-14T14:27:45;100778.72;;;37.86;14.92
29879;BME280;16752;53.364;-1.488;2023-06-14T14:30:29;100800.88;;;36.05;16.08
29879;BME280;16752;53.364;-1.488;2023-06-14T14:36:24;100712.63;;;35.85;16.91
29879;BME280;16752;53.364;-1.488;2023-06-14T14:52:02;100816.44;;;37.74;14.90
29879;BME280;16752;53.364;-1.488;2023-06-14T14:54:58;100731.63;;;35.52;15.22
29879;BME280;16752;53.364;-1.488;2023-06-14T14:57:43;100813.63;;;36.59;16.15
29879;BME280;16752;53.364;-1.488;2023-06-14T15:00:27;100818.38;;;37.93;15.21
29879;BME280;16752;53.364;-1.488;2023-06-14T15:03:11;100800.03;;;37.74;15.59
29879;BME280;16752;53.364;-1.488;2023-06-14T15:05:56;100821.84;;;37.06;15.27
29879;BME280;16752;53.364;-1.488;2023-06-14T15:08:40;100748.44;;;37.15;15.76
29879;BME280;16752;53.364;-1.488;2023-06-14T15:11:24;100826.88;;;38.12;15.74
29879;BME280;16752;53.364;-1.488;2023-06-14T15:14:08;100735.25;;;38.00;14.95
29879;BME280;16752;53.364;-1.488;2023-06-14T15:16:54;100789.66;;;38.88;13.01
29879;BME280;16752;53.364;-1.488;2023-06-14T15:19:40;100816.19;;;39.67;13.48
29879;BME280;16752;53.364;-1.488;2023-06-14T15:22:24;100807.19;;;38.81;13.78
29879;BME280;16752;53.364;-1.488;2023-06-14T15:25:29;100761.22;;;37.92;14.31
29879;BME280;16752;53.364;-1.488;2023-06-14T15:28:13;100762.00;;;37.72;14.60
29879;BME280;16752;53.364;-1.488;2023-06-14T15:31:04;100823.78;;;40.58;12.06
29879;BME280;16752;53.364;-1.488;2023-06-14T15:33:49;100725.44;;;40.60;11.56
29879;BME280;16752;53.364;-1.488;2023-06-14T15:36:39;100746.84;;;42.65;9.76
29879;BME280;16752;53.364;-1.488;2023-06-14T15:39:23;100765.03;;;43.94;9.86
29879;BME280;16752;53.364;-1.488;2023-06-14T15:42:08;100816.06;;;44.18;10.40
29879;BME280;16752;53.364;-1.488;2023-06-14T15:44:53;100785.44;;;44.60;9.88
29879;BME280;16752;53.364;-1.488;2023-06-14T15:47:44;100748.03;;;43.42;10.75
29879;BME280;16752;53.364;-1.488;2023-06-14T15:50:28;100821.84;;;46.27;9.31
29879;BME280;16752;53.364;-1.488;2023-06-14T15:53:16;100820.53;;;46.42;9.09
29879;BME280;16752;53.364;-1.488;2023-06-14T15:56:01;100791.00;;;44.46;10.05
29879;BME280;16752;53.364;-1.488;2023-06-14T15:58:45;100783.22;;;43.95;11.07
29879;BME280;16752;53.364;-1.488;2023-06-14T16:01:29;100759.16;;;45.88;8.97
29879;BME280;16752;53.364;-1.488;2023-06-14T16:04:14;100791.31;;;46.53;9.18